Time;durP1;ratioP1;P1;durP2;ratioP2;P2;SDS_P1;SDS_P2;PMS_P1;PMS_P2;Temp;Humidity;BMP_temperature;BMP_pressure;BME280_temperature;BME280_humidity;BME280_pressure;Samples;Min_cycle;Max_cycle;Signal;HPM_P1;HPM_P2
2022/04/12 00:01:11;;;;;;;12.38;7.13;;;;;;;;;;10314049;28;20772;-82
2022/04/12 00:06:13;;;;;;;10.40;6.63;;;;;;;;;;10318524;28;20428;-81
2022/04/12 00:11:16;;;;;;;11.20;6.97;;;;;;;;;;10313432;28;20444;-81
2022/04/12 00:16:18;;;;;;;10.55;6.68;;;;;;;;;;10309748;28;20554;-81
2022/04/12 00:21:20;;;;;;;9.40;6.55;;;;;;;;;;10323448;28;20490;-81
2022/04/12 00:26:23;;;;;;;11.40;6.50;;;;;;;;;;10323095;28;20429;-81
2022/04/12 00:31:25;;;;;;;8.63;6.32;;;;;;;;;;10323006;28;20418;-81
2022/04/12 00:36:27;;;;;;;9.55;6.78;;;;;;;;;;10320870;28;20421;-81
2022/04/12 00:41:35;;;;;;;8.73;6.50;;;;;;;;;;10321380;28;20400;-81
2022/04/12 00:46:37;;;;;;;11.75;6.18;;;;;;;;;;10321199;28;20585;-81
2022/04/12 00:51:39;;;;;;;11.73;6.13;;;;;;;;;;10323894;28;20422;-81
2022/04/12 00:56:42;;;;;;;12.18;6.75;;;;;;;;;;10326030;28;20828;-80
2022/04/12 01:01:44;;;;;;;12.17;6.20;;;;;;;;;;10322521;28;20458;-81
2022/04/12 01:06:46;;;;;;;10.63;6.30;;;;;;;;;;10323824;28;20429;-81
2022/04/12 01:11:49;;;;;;;13.55;7.00;;;;;;;;;;10316535;28;20471;-81
2022/04/12 01:16:52;;;;;;;9.73;6.32;;;;;;;;;;10319952;28;20471;-81
2022/04/12 01:22:00;;;;;;;8.77;5.88;;;;;;;;;;10324160;28;20418;-80
2022/04/12 01:27:04;;;;;;;9.82;6.22;;;;;;;;;;10326868;28;20550;-80
2022/04/12 01:32:07;;;;;;;9.32;6.00;;;;;;;;;;10321481;28;20448;-81
2022/04/12 01:37:09;;;;;;;10.50;6.10;;;;;;;;;;10321837;28;20457;-80
2022/04/12 01:42:12;;;;;;;9.03;6.20;;;;;;;;;;10321731;28;20411;-79
2022/04/12 01:47:17;;;;;;;10.50;6.20;;;;;;;;;;10323832;28;20475;-80
2022/04/12 01:52:18;;;;;;;9.43;5.93;;;;;;;;;;10323003;28;20463;-80
2022/04/12 01:57:22;;;;;;;9.27;6.20;;;;;;;;;;10310303;28;20503;-82
2022/04/12 02:02:23;;;;;;;9.82;5.88;;;;;;;;;;10306362;28;20497;-81
2022/04/12 02:46:58;;;;;;;9.35;6.10;;;;;;;;;;10418697;28;20493;-96
2022/04/12 02:52:03;;;;;;;12.38;6.18;;;;;;;;;;10399565;28;20476;-96
2022/04/12 03:08:16;;;;;;;9.98;5.82;;;;;;;;;;10408563;28;20446;-96
2022/04/12 03:13:25;;;;;;;8.65;5.75;;;;;;;;;;10392749;28;20760;-96
2022/04/12 03:23:55;;;;;;;9.20;5.57;;;;;;;;;;10424002;28;20475;-96
2022/04/12 03:29:05;;;;;;;9.03;5.87;;;;;;;;;;10395636;28;20442;-96
2022/04/12 03:34:19;;;;;;;8.15;5.30;;;;;;;;;;10396233;28;20409;-95
2022/04/12 03:50:15;;;;;;;8.30;5.18;;;;;;;;;;13005763;22;20409;-96
2022/04/12 03:55:35;;;;;;;9.55;5.50;;;;;;;;;;13002380;22;20442;-96
2022/04/12 04:01:08;;;;;;;12.65;6.32;;;;;;;;;;13023508;22;20429;-96
2022/04/12 04:17:51;;;;;;;12.20;6.10;;;;;;;;;;13023460;22;20411;-96
2022/04/12 04:22:53;;;;;;;10.27;6.13;;;;;;;;;;13025429;22;20461;-96
2022/04/12 05:06:45;;;;;;;9.63;6.70;;;;;;;;;;12965498;23;20364;-96
2022/04/12 05:17:07;;;;;;;10.27;6.20;;;;;;;;;;12942128;23;20487;-96
2022/04/12 05:22:22;;;;;;;16.17;9.20;;;;;;;;;;12931572;22;20538;-96
2022/04/12 05:28:11;;;;;;;11.90;7.07;;;;;;;;;;12964273;23;20365;-96
2022/04/12 05:33:13;;;;;;;12.68;7.25;;;;;;;;;;12936520;22;20417;-92
2022/04/12 05:38:15;;;;;;;12.73;7.00;;;;;;;;;;12924554;22;20389;-95
2022/04/12 05:43:19;;;;;;;10.87;6.60;;;;;;;;;;12918850;22;20593;-94
2022/04/12 05:48:26;;;;;;;14.98;7.15;;;;;;;;;;12918731;22;20485;-94
2022/04/12 05:53:28;;;;;;;11.47;6.90;;;;;;;;;;12957704;22;20865;-94
2022/04/12 05:58:35;;;;;;;10.80;6.87;;;;;;;;;;12924751;22;20896;-91
2022/04/12 06:03:42;;;;;;;13.80;6.95;;;;;;;;;;12914270;23;20836;-90
2022/04/12 06:08:47;;;;;;;12.33;7.00;;;;;;;;;;12906218;23;20419;-91
2022/04/12 06:13:53;;;;;;;12.00;6.93;;;;;;;;;;12905703;22;20523;-90
2022/04/12 06:18:55;;;;;;;14.65;7.28;;;;;;;;;;12905694;22;20841;-90
2022/04/12 06:23:57;;;;;;;10.18;6.47;;;;;;;;;;12906665;22;20388;-90
2022/04/12 06:29:01;;;;;;;12.75;6.60;;;;;;;;;;12906987;22;20911;-89
2022/04/12 06:34:02;;;;;;;9.98;6.28;;;;;;;;;;12903746;22;20372;-90
2022/04/12 06:39:04;;;;;;;10.82;6.15;;;;;;;;;;12881884;23;20412;-90
2022/04/12 06:44:13;;;;;;;9.65;6.38;;;;;;;;;;12910455;22;20374;-90
2022/04/12 06:49:15;;;;;;;14.82;6.57;;;;;;;;;;12903918;22;20403;-90
2022/04/12 06:54:27;;;;;;;9.40;5.70;;;;;;;;;;12908268;22;20402;-91
2022/04/12 06:59:34;;;;;;;14.02;5.95;;;;;;;;;;12906685;23;20394;-90
2022/04/12 07:04:38;;;;;;;11.65;5.63;;;;;;;;;;12909671;23;20744;-90
2022/04/12 07:09:40;;;;;;;8.82;5.50;;;;;;;;;;12911834;22;20419;-91
2022/04/12 07:14:44;;;;;;;7.50;5.03;;;;;;;;;;12910637;23;20372;-90
2022/04/12 07:19:46;;;;;;;9.07;5.50;;;;;;;;;;12911084;22;20388;-91
2022/04/12 07:24:47;;;;;;;8.63;5.22;;;;;;;;;;12911498;22;20372;-90
2022/04/12 07:29:51;;;;;;;6.80;5.30;;;;;;;;;;12882522;23;20369;-89
2022/04/12 07:34:53;;;;;;;9.43;5.28;;;;;;;;;;12903778;22;20369;-89
2022/04/12 07:39:56;;;;;;;7.77;5.07;;;;;;;;;;12906732;22;20391;-90
2022/04/12 07:45:00;;;;;;;8.43;5.32;;;;;;;;;;12911038;22;20378;-93
2022/04/12 07:50:02;;;;;;;8.50;5.30;;;;;;;;;;12911138;23;20395;-92
2022/04/12 07:55:04;;;;;;;10.52;6.07;;;;;;;;;;12912744;23;20663;-93
2022/04/12 08:00:09;;;;;;;10.23;6.32;;;;;;;;;;12911957;22;20376;-94
2022/04/12 08:05:11;;;;;;;6.85;5.20;;;;;;;;;;12910322;23;20368;-91
2022/04/12 08:10:13;;;;;;;6.17;4.70;;;;;;;;;;12909571;22;20372;-91
2022/04/12 08:15:17;;;;;;;6.95;4.88;;;;;;;;;;12908072;22;20679;-90
2022/04/12 08:20:18;;;;;;;8.07;4.97;;;;;;;;;;12907504;22;20849;-91
2022/04/12 08:25:20;;;;;;;8.50;4.80;;;;;;;;;;12911236;22;20379;-91
2022/04/12 08:30:24;;;;;;;11.90;6.10;;;;;;;;;;12912634;22;20380;-92
2022/04/12 08:35:26;;;;;;;8.77;4.78;;;;;;;;;;12912607;22;20372;-92
2022/04/12 08:40:29;;;;;;;8.05;5.15;;;;;;;;;;12912933;22;20407;-91
2022/04/12 08:45:34;;;;;;;9.68;4.68;;;;;;;;;;12914524;22;20833;-92
2022/04/12 08:50:37;;;;;;;7.90;4.93;;;;;;;;;;12914232;22;20384;-92
2022/04/12 08:55:40;;;;;;;9.03;4.67;;;;;;;;;;12916176;22;20394;-92
2022/04/12 09:00:46;;;;;;;11.15;4.68;;;;;;;;;;12916338;22;20406;-92
2022/04/12 09:05:48;;;;;;;8.90;5.20;;;;;;;;;;12918979;22;20380;-92
2022/04/12 09:10:57;;;;;;;7.93;4.90;;;;;;;;;;12933993;22;20410;-93
2022/04/12 09:16:01;;;;;;;12.02;5.30;;;;;;;;;;12951957;22;20372;-93
2022/04/12 09:21:14;;;;;;;9.07;4.17;;;;;;;;;;12912685;22;20383;-92
2022/04/12 09:26:21;;;;;;;7.78;4.72;;;;;;;;;;12911451;22;20395;-93
2022/04/12 09:31:25;;;;;;;8.55;4.50;;;;;;;;;;12912191;22;20438;-92
2022/04/12 09:36:34;;;;;;;6.45;4.28;;;;;;;;;;12910865;22;20391;-94
2022/04/12 09:41:36;;;;;;;7.90;3.93;;;;;;;;;;12912365;22;20368;-92
2022/04/12 09:46:42;;;;;;;8.23;4.35;;;;;;;;;;12911314;22;20434;-94
2022/04/12 09:51:49;;;;;;;5.87;3.90;;;;;;;;;;12911996;22;20376;-93
2022/04/12 09:56:53;;;;;;;7.07;4.13;;;;;;;;;;12910974;22;21263;-92
2022/04/12 10:01:56;;;;;;;6.05;4.10;;;;;;;;;;12910060;22;20407;-94
2022/04/12 10:06:59;;;;;;;8.02;5.07;;;;;;;;;;12912736;22;20380;-92
2022/04/12 10:12:02;;;;;;;6.47;4.22;;;;;;;;;;12911759;22;20410;-92
2022/04/12 10:17:06;;;;;;;5.93;3.70;;;;;;;;;;12911415;22;20384;-93
2022/04/12 10:22:11;;;;;;;6.25;4.40;;;;;;;;;;12911553;22;20368;-92
2022/04/12 10:27:13;;;;;;;7.25;4.18;;;;;;;;;;12910303;22;20777;-93
2022/04/12 10:32:17;;;;;;;6.60;4.40;;;;;;;;;;12911058;22;20380;-93
2022/04/12 10:37:20;;;;;;;8.43;5.05;;;;;;;;;;12910433;22;20388;-93
2022/04/12 10:42:26;;;;;;;7.53;4.80;;;;;;;;;;12911088;22;20376;-93
2022/04/12 10:47:35;;;;;;;9.57;5.50;;;;;;;;;;12910307;22;20437;-93
2022/04/12 10:52:43;;;;;;;10.75;5.40;;;;;;;;;;12911545;22;20380;-92
2022/04/12 10:57:46;;;;;;;6.85;5.00;;;;;;;;;;12910839;22;20384;-92
2022/04/12 11:02:54;;;;;;;7.55;5.70;;;;;;;;;;12911005;22;20387;-92
2022/04/12 11:07:56;;;;;;;11.03;5.70;;;;;;;;;;12910885;22;20856;-93
2022/04/12 11:13:06;;;;;;;7.30;6.30;;;;;;;;;;12911574;22;20384;-92
2022/04/12 11:18:12;;;;;;;8.98;6.25;;;;;;;;;;12911671;22;20474;-91
2022/04/12 11:23:15;;;;;;;8.20;5.25;;;;;;;;;;12906029;22;20421;-89
2022/04/12 11:28:22;;;;;;;8.05;5.60;;;;;;;;;;12905271;22;20690;-90
2022/04/12 11:33:28;;;;;;;7.47;5.77;;;;;;;;;;12902784;22;20376;-89
2022/04/12 11:38:30;;;;;;;7.53;5.35;;;;;;;;;;12872920;22;20446;-89
2022/04/12 11:43:32;;;;;;;10.98;6.38;;;;;;;;;;12906893;22;20376;-92
2022/04/12 11:48:36;;;;;;;7.65;5.70;;;;;;;;;;12911181;22;20376;-91
2022/04/12 11:53:47;;;;;;;8.98;6.60;;;;;;;;;;12911540;22;20410;-93
2022/04/12 11:58:49;;;;;;;9.25;6.85;;;;;;;;;;12913270;22;20387;-91
2022/04/12 12:03:52;;;;;;;7.97;5.82;;;;;;;;;;12913978;22;20689;-92
2022/04/12 12:08:54;;;;;;;6.90;6.20;;;;;;;;;;12915068;22;20697;-92
2022/04/12 12:13:59;;;;;;;10.35;6.70;;;;;;;;;;12914026;22;20732;-92
2022/04/12 12:19:02;;;;;;;9.25;6.35;;;;;;;;;;12914070;22;20774;-90
2022/04/12 12:24:07;;;;;;;9.13;7.15;;;;;;;;;;12915001;22;20372;-90
2022/04/12 12:29:10;;;;;;;11.15;7.10;;;;;;;;;;12913200;22;20713;-90
2022/04/12 12:39:48;;;;;;;9.30;6.50;;;;;;;;;;10557885;27;20393;-89
2022/04/12 12:44:50;;;;;;;7.20;6.40;;;;;;;;;;10539251;28;20817;-89
2022/04/12 12:49:52;;;;;;;8.32;6.93;;;;;;;;;;10525914;28;20409;-89
2022/04/12 12:54:59;;;;;;;8.67;6.40;;;;;;;;;;10519604;28;20439;-90
2022/04/12 13:00:05;;;;;;;10.82;6.75;;;;;;;;;;10522447;28;20422;-89
2022/04/12 13:05:08;;;;;;;9.85;6.70;;;;;;;;;;10519925;28;20441;-89
2022/04/12 13:10:14;;;;;;;9.00;6.57;;;;;;;;;;10533038;28;20409;-89
2022/04/12 13:15:16;;;;;;;8.63;6.50;;;;;;;;;;10513302;28;20496;-89
2022/04/12 13:20:19;;;;;;;8.43;6.95;;;;;;;;;;10520962;28;20413;-88
2022/04/12 13:30:38;;;;;;;9.55;7.70;;;;;;;;;;10518421;28;20421;-88
2022/04/12 13:35:40;;;;;;;9.23;7.67;;;;;;;;;;10533456;28;20415;-89
2022/04/12 13:40:44;;;;;;;11.50;8.10;;;;;;;;;;10560577;28;20550;-91
2022/04/12 13:45:45;;;;;;;9.73;7.03;;;;;;;;;;10563990;28;20544;-90
2022/04/12 13:50:47;;;;;;;8.93;6.95;;;;;;;;;;10534049;28;20808;-90
2022/04/12 13:55:51;;;;;;;9.95;7.00;;;;;;;;;;10540333;28;20509;-90
2022/04/12 14:01:19;;;;;;;8.73;7.30;;;;;;;;;;10538560;28;20988;-92
2022/04/12 14:06:22;;;;;;;9.85;7.25;;;;;;;;;;10534097;28;21671;-91
2022/04/12 14:17:22;;;;;;;9.13;7.40;;;;;;;;;;10427402;28;20415;-80
2022/04/12 14:22:25;;;;;;;9.40;7.18;;;;;;;;;;10426540;28;20401;-82
2022/04/12 14:27:27;;;;;;;9.87;7.90;;;;;;;;;;10437913;28;20963;-81
2022/04/12 14:32:30;;;;;;;8.98;7.05;;;;;;;;;;10432599;28;20419;-81
2022/04/12 14:37:32;;;;;;;8.80;7.43;;;;;;;;;;10433133;28;20427;-81
2022/04/12 14:42:34;;;;;;;10.17;7.17;;;;;;;;;;10429767;28;20511;-80
2022/04/12 14:47:38;;;;;;;8.60;7.35;;;;;;;;;;10430929;28;20412;-81
2022/04/12 14:52:41;;;;;;;9.50;7.80;;;;;;;;;;10426827;28;20742;-82
2022/04/12 14:57:43;;;;;;;10.32;7.38;;;;;;;;;;10429708;28;20539;-81
2022/04/12 15:02:46;;;;;;;10.38;7.70;;;;;;;;;;10428626;28;20475;-82
2022/04/12 15:07:48;;;;;;;9.93;8.00;;;;;;;;;;10432967;28;20414;-81
2022/04/12 15:12:50;;;;;;;10.77;8.50;;;;;;;;;;10435296;28;20905;-81
2022/04/12 15:17:53;;;;;;;8.18;7.32;;;;;;;;;;10422252;28;20457;-81
2022/04/12 15:22:55;;;;;;;11.77;8.57;;;;;;;;;;10441132;28;20906;-81
2022/04/12 15:27:57;;;;;;;8.75;7.72;;;;;;;;;;10441311;28;20439;-81
2022/04/12 15:33:00;;;;;;;8.98;7.55;;;;;;;;;;10442329;28;20483;-81
2022/04/12 15:38:03;;;;;;;9.30;7.80;;;;;;;;;;10440393;28;20533;-82
2022/04/12 15:43:06;;;;;;;11.23;8.10;;;;;;;;;;10438980;28;20498;-80
2022/04/12 15:48:10;;;;;;;9.00;7.70;;;;;;;;;;10434028;28;20836;-80
2022/04/12 15:53:12;;;;;;;11.82;7.78;;;;;;;;;;10438348;28;20767;-80
2022/04/12 15:58:13;;;;;;;9.45;8.30;;;;;;;;;;10436692;28;20416;-81
2022/04/12 16:03:18;;;;;;;10.88;8.18;;;;;;;;;;10435086;28;20415;-81
2022/04/12 16:08:20;;;;;;;9.90;7.93;;;;;;;;;;10433395;28;21131;-80
2022/04/12 16:13:22;;;;;;;11.70;8.27;;;;;;;;;;10427273;28;20425;-80
2022/04/12 16:18:25;;;;;;;11.00;8.00;;;;;;;;;;10426097;28;20508;-81
2022/04/12 16:23:27;;;;;;;9.63;8.20;;;;;;;;;;10435184;28;20416;-81
2022/04/12 16:28:29;;;;;;;10.73;8.87;;;;;;;;;;10428154;28;20499;-81
2022/04/12 16:33:33;;;;;;;11.20;8.60;;;;;;;;;;10424845;28;20926;-81
2022/04/12 16:38:34;;;;;;;10.73;7.93;;;;;;;;;;10428916;28;20471;-80
2022/04/12 16:43:39;;;;;;;10.87;8.30;;;;;;;;;;10428528;28;20446;-80
2022/04/12 16:48:43;;;;;;;13.32;8.23;;;;;;;;;;10434243;28;20419;-80
2022/04/12 16:53:46;;;;;;;9.20;7.93;;;;;;;;;;10437832;28;21022;-81
2022/04/12 16:58:48;;;;;;;10.87;8.43;;;;;;;;;;10435718;28;20473;-81
2022/04/12 17:03:51;;;;;;;11.73;8.38;;;;;;;;;;10434632;28;20783;-82
2022/04/12 17:08:55;;;;;;;11.30;9.50;;;;;;;;;;10431764;28;20427;-81
2022/04/12 17:13:57;;;;;;;12.48;10.55;;;;;;;;;;10417790;28;20773;-81
2022/04/12 17:19:01;;;;;;;14.18;9.23;;;;;;;;;;10411877;28;20621;-81
2022/04/12 17:24:03;;;;;;;10.77;9.32;;;;;;;;;;10433229;28;20421;-82
2022/04/12 17:29:09;;;;;;;10.53;6.80;;;;;;;;;;10430530;28;20530;-83
2022/04/12 17:34:16;;;;;;;5.63;3.00;;;;;;;;;;10436706;28;20477;-81
2022/04/12 17:39:18;;;;;;;6.93;3.00;;;;;;;;;;10437640;28;20414;-81
2022/04/12 17:44:20;;;;;;;7.30;3.30;;;;;;;;;;10435460;28;20495;-81
2022/04/12 17:49:23;;;;;;;10.00;3.80;;;;;;;;;;10436663;28;20412;-83
2022/04/12 17:54:25;;;;;;;6.43;3.70;;;;;;;;;;10436202;28;20414;-82
2022/04/12 17:59:27;;;;;;;11.38;4.38;;;;;;;;;;10438628;28;20420;-83
2022/04/12 18:04:30;;;;;;;11.77;5.30;;;;;;;;;;10441314;28;20443;-82
2022/04/12 18:09:34;;;;;;;8.95;5.38;;;;;;;;;;10441795;28;20407;-81
2022/04/12 18:14:37;;;;;;;9.67;5.00;;;;;;;;;;10438622;28;20427;-81
2022/04/12 18:19:40;;;;;;;7.65;4.75;;;;;;;;;;10433463;28;20489;-81
2022/04/12 18:24:42;;;;;;;11.13;5.87;;;;;;;;;;10431213;28;21223;-81
2022/04/12 18:29:45;;;;;;;10.25;6.03;;;;;;;;;;10421723;28;20422;-81
2022/04/12 18:34:49;;;;;;;10.77;6.03;;;;;;;;;;10430908;28;20526;-80
2022/04/12 18:39:51;;;;;;;11.13;6.55;;;;;;;;;;10424018;28;20507;-81
2022/04/12 18:44:53;;;;;;;9.65;6.40;;;;;;;;;;10431384;28;20514;-81
2022/04/12 18:49:56;;;;;;;9.93;6.73;;;;;;;;;;10429955;28;21280;-82
2022/04/12 18:54:59;;;;;;;9.30;7.13;;;;;;;;;;10423882;28;20432;-81
2022/04/12 19:00:03;;;;;;;11.90;7.53;;;;;;;;;;10432496;28;20473;-80
2022/04/12 19:05:08;;;;;;;11.98;8.43;;;;;;;;;;10420933;28;21002;-79
2022/04/12 19:10:10;;;;;;;12.48;8.23;;;;;;;;;;10420733;28;20419;-81
2022/04/12 19:15:24;;;;;;;13.68;9.18;;;;;;;;;;10422823;28;20420;-80
2022/04/12 19:20:27;;;;;;;14.07;10.20;;;;;;;;;;10423427;28;20514;-80
2022/04/12 19:25:30;;;;;;;20.92;11.68;;;;;;;;;;10438057;28;20768;-79
2022/04/12 19:30:34;;;;;;;16.90;11.13;;;;;;;;;;10432870;28;21087;-80
2022/04/12 19:35:39;;;;;;;12.02;8.90;;;;;;;;;;10430073;28;20426;-80
2022/04/12 19:40:40;;;;;;;11.50;7.20;;;;;;;;;;10435224;28;20438;-82
2022/04/12 19:45:42;;;;;;;8.20;5.85;;;;;;;;;;10431219;28;21162;-79
2022/04/12 19:50:45;;;;;;;9.90;6.03;;;;;;;;;;10431172;28;20410;-81
2022/04/12 19:55:47;;;;;;;10.82;5.47;;;;;;;;;;10433921;28;20471;-81
2022/04/12 20:00:49;;;;;;;9.52;6.00;;;;;;;;;;10423635;28;20431;-81
2022/04/12 20:05:53;;;;;;;7.68;5.10;;;;;;;;;;10429429;28;20470;-80
2022/04/12 20:10:58;;;;;;;9.57;6.20;;;;;;;;;;10417063;28;20492;-80
2022/04/12 20:16:00;;;;;;;12.75;7.40;;;;;;;;;;10413001;28;20413;-81
2022/04/12 20:21:04;;;;;;;12.45;7.57;;;;;;;;;;10410266;28;20492;-82
2022/04/12 20:26:06;;;;;;;11.40;7.28;;;;;;;;;;10411975;28;20503;-81
2022/04/12 20:31:12;;;;;;;10.03;7.00;;;;;;;;;;10412125;28;20574;-80
2022/04/12 20:36:15;;;;;;;12.52;7.00;;;;;;;;;;10412244;28;20425;-82
2022/04/12 20:41:17;;;;;;;12.18;8.10;;;;;;;;;;10412303;28;20411;-81
2022/04/12 20:46:20;;;;;;;11.25;8.82;;;;;;;;;;10415644;28;20419;-80
2022/04/12 20:51:23;;;;;;;12.60;8.33;;;;;;;;;;10419522;28;20419;-80
2022/04/12 20:56:26;;;;;;;11.30;8.47;;;;;;;;;;10431029;28;20418;-80
2022/04/12 21:01:27;;;;;;;11.23;7.95;;;;;;;;;;10440385;28;20416;-80
2022/04/12 21:06:31;;;;;;;10.37;7.70;;;;;;;;;;10443733;28;20426;-82
2022/04/12 21:11:32;;;;;;;11.25;8.65;;;;;;;;;;10443302;28;20506;-79
2022/04/12 21:16:34;;;;;;;12.23;8.10;;;;;;;;;;10440700;28;20425;-79
2022/04/12 21:21:38;;;;;;;11.15;7.82;;;;;;;;;;10444123;28;20425;-80
2022/04/12 21:26:39;;;;;;;9.97;7.90;;;;;;;;;;10443846;28;20413;-79
2022/04/12 21:31:41;;;;;;;10.82;8.13;;;;;;;;;;10435840;28;20419;-81
2022/04/12 21:36:44;;;;;;;12.63;9.10;;;;;;;;;;10442439;28;21232;-79
2022/04/12 21:41:47;;;;;;;11.77;8.80;;;;;;;;;;10444271;28;20400;-79
2022/04/12 21:46:49;;;;;;;10.65;8.30;;;;;;;;;;10445508;28;20838;-79
2022/04/12 21:51:52;;;;;;;11.47;8.63;;;;;;;;;;10444911;28;20605;-80
2022/04/12 21:56:54;;;;;;;12.33;9.03;;;;;;;;;;10444783;28;20851;-79
2022/04/12 22:01:56;;;;;;;13.30;8.80;;;;;;;;;;10445231;28;20396;-80
2022/04/12 22:06:59;;;;;;;12.17;8.80;;;;;;;;;;10440348;28;20458;-80
2022/04/12 22:12:01;;;;;;;11.40;8.90;;;;;;;;;;10444386;28;20766;-80
2022/04/12 22:17:04;;;;;;;14.48;9.43;;;;;;;;;;10444260;28;20422;-79
2022/04/12 22:22:07;;;;;;;14.10;8.93;;;;;;;;;;10443979;28;20483;-80
2022/04/12 22:27:09;;;;;;;12.50;9.13;;;;;;;;;;10444367;28;20408;-79
2022/04/12 22:32:11;;;;;;;12.52;9.68;;;;;;;;;;10444111;28;20909;-79
2022/04/12 22:37:14;;;;;;;12.00;9.63;;;;;;;;;;10443315;28;20961;-78
2022/04/12 22:42:18;;;;;;;12.60;9.75;;;;;;;;;;10443600;28;20402;-80
2022/04/12 22:47:20;;;;;;;15.05;11.15;;;;;;;;;;10443760;28;20409;-78
2022/04/12 22:52:23;;;;;;;15.40;11.73;;;;;;;;;;10442851;28;20410;-80
2022/04/12 22:57:25;;;;;;;15.15;11.65;;;;;;;;;;10443389;28;20469;-80
2022/04/12 23:02:27;;;;;;;18.73;12.47;;;;;;;;;;10443104;28;20498;-81
2022/04/12 23:07:31;;;;;;;14.32;12.00;;;;;;;;;;10437985;28;20407;-80
2022/04/12 23:12:33;;;;;;;16.90;12.43;;;;;;;;;;10442571;28;20490;-79
2022/04/12 23:17:48;;;;;;;14.85;12.98;;;;;;;;;;10442087;28;20507;-79
2022/04/12 23:22:52;;;;;;;17.45;13.98;;;;;;;;;;10440874;28;20505;-80
2022/04/12 23:27:54;;;;;;;16.10;13.60;;;;;;;;;;10442046;28;20414;-79
2022/04/12 23:32:57;;;;;;;18.97;14.30;;;;;;;;;;10440972;28;20431;-80
2022/04/12 23:38:03;;;;;;;18.95;14.30;;;;;;;;;;10439223;28;20415;-80
2022/04/12 23:43:07;;;;;;;17.23;14.87;;;;;;;;;;10435021;28;20404;-79
2022/04/12 23:48:09;;;;;;;18.27;14.52;;;;;;;;;;10438036;28;20435;-80
2022/04/12 23:53:12;;;;;;;17.77;13.97;;;;;;;;;;10439042;28;20478;-79
2022/04/12 23:58:14;;;;;;;19.47;15.30;;;;;;;;;;10440035;28;20519;-79
